createdAt,value
2024-05-09T00:03:41.291Z,23.67
2024-05-09T00:08:43.242Z,22.60
2024-05-09T00:13:45.056Z,22.23
2024-05-09T00:18:47.071Z,23.30
2024-05-09T00:23:48.966Z,23.20
2024-05-09T00:28:50.878Z,23.43
2024-05-09T00:33:54.198Z,20.43
2024-05-09T00:38:56.090Z,21.37
2024-05-09T00:43:57.977Z,23.43
2024-05-09T00:49:00.350Z,21.73
2024-05-09T00:54:02.530Z,24.07
2024-05-09T00:59:04.599Z,24.23
2024-05-09T01:04:06.922Z,21.80
2024-05-09T01:09:09.144Z,20.80
2024-05-09T01:14:10.944Z,20.50
2024-05-09T01:19:22.884Z,20.50
2024-05-09T01:24:24.822Z,20.57
2024-05-09T01:29:26.830Z,21.50
2024-05-09T01:34:28.773Z,21.60
2024-05-09T01:39:30.601Z,20.23
2024-05-09T01:44:32.468Z,22.27
2024-05-09T01:49:36.335Z,18.33
2024-05-09T01:54:38.204Z,20.73
2024-05-09T01:59:40.086Z,20.23
2024-05-09T02:04:42.090Z,19.67
2024-05-09T02:09:43.958Z,21.77
2024-05-09T02:14:45.741Z,19.27
2024-05-09T02:19:47.633Z,21.47
2024-05-09T02:24:49.434Z,20.70
2024-05-09T02:29:51.595Z,19.67
2024-05-09T02:34:53.393Z,20.97
2024-05-09T02:39:55.209Z,21.63
2024-05-09T02:44:56.995Z,20.63
2024-05-09T02:49:58.786Z,21.00
2024-05-09T02:55:00.602Z,20.60
2024-05-09T03:00:03.592Z,18.87
2024-05-09T03:05:06.662Z,18.60
2024-05-09T03:10:18.136Z,20.47
2024-05-09T03:15:24.274Z,21.23
2024-05-09T03:20:32.567Z,20.40
2024-05-09T03:25:36.587Z,19.83
2024-05-09T03:30:42.037Z,20.90
2024-05-09T03:35:45.014Z,20.63
2024-05-09T03:40:48.878Z,20.17
2024-05-09T03:45:51.461Z,20.63
2024-05-09T03:50:53.433Z,19.80
2024-05-09T03:55:56.971Z,20.73
2024-05-09T04:00:58.882Z,20.37
2024-05-09T04:06:00.715Z,19.63
2024-05-09T04:11:02.661Z,19.67
2024-05-09T04:16:04.841Z,20.40
2024-05-09T04:21:06.782Z,19.70
2024-05-09T04:26:08.852Z,18.10
2024-05-09T04:31:10.746Z,18.70
2024-05-09T04:36:12.663Z,20.57
2024-05-09T04:41:14.554Z,20.17
2024-05-09T04:46:16.370Z,19.17
2024-05-09T04:51:18.299Z,19.90
2024-05-09T04:56:20.163Z,18.50
2024-05-09T05:01:22.032Z,18.83
2024-05-09T05:06:23.957Z,17.57
2024-05-09T05:11:25.839Z,17.07
2024-05-09T05:16:27.719Z,16.93
2024-05-09T05:21:29.550Z,17.17
2024-05-09T05:26:31.691Z,16.00
2024-05-09T05:31:33.620Z,16.87
2024-05-09T05:36:35.421Z,16.70
2024-05-09T05:41:37.247Z,17.23
2024-05-09T05:46:39.083Z,16.80
2024-05-09T05:51:40.884Z,18.10
2024-05-09T05:56:42.750Z,16.63
2024-05-09T06:01:44.572Z,17.50
2024-05-09T06:06:46.514Z,17.63
2024-05-09T06:11:48.465Z,16.33
2024-05-09T06:16:50.417Z,16.53
2024-05-09T06:21:52.285Z,17.93
2024-05-09T06:26:54.085Z,17.27
2024-05-09T06:31:57.167Z,16.37
2024-05-09T06:37:01.262Z,16.67
2024-05-09T06:42:03.178Z,16.90
2024-05-09T06:47:05.101Z,18.07
2024-05-09T06:52:07.113Z,17.80
2024-05-09T06:57:08.900Z,19.27
2024-05-09T07:02:10.940Z,18.20
2024-05-09T07:07:12.756Z,19.77
2024-05-09T07:12:14.742Z,17.03
2024-05-09T07:17:17.355Z,20.70
2024-05-09T07:22:19.211Z,25.00
2024-05-09T07:27:21.015Z,22.70
2024-05-09T07:32:23.009Z,20.40
2024-05-09T07:37:24.994Z,17.97
2024-05-09T07:42:26.843Z,17.60
2024-05-09T07:48:57.227Z,20.30
2024-05-09T07:53:35.358Z,17.90
2024-05-09T07:58:12.963Z,21.83
2024-05-09T08:03:14.914Z,16.13
2024-05-09T08:08:16.898Z,21.03
2024-05-09T08:13:18.986Z,21.47
2024-05-09T08:18:20.956Z,18.67
2024-05-09T08:23:23.795Z,18.90
2024-05-09T08:28:25.681Z,17.23
2024-05-09T08:33:27.697Z,16.70
2024-05-09T08:38:29.595Z,17.50
2024-05-09T08:43:31.509Z,18.47
2024-05-09T08:48:36.812Z,16.93
2024-05-09T08:53:38.895Z,14.27
2024-05-09T08:58:42.580Z,17.10
2024-05-09T09:03:45.743Z,17.23
2024-05-09T09:08:48.574Z,14.50
2024-05-09T09:13:50.449Z,13.37
2024-05-09T09:18:53.408Z,13.83
2024-05-09T09:23:55.712Z,14.10
2024-05-09T09:29:04.432Z,14.53
2024-05-09T09:34:08.327Z,13.07
2024-05-09T09:39:10.630Z,12.10
2024-05-09T09:44:12.573Z,12.10
2024-05-09T09:49:15.464Z,9.93
2024-05-09T09:54:19.119Z,9.90
2024-05-09T09:59:21.910Z,8.40
2024-05-09T10:04:24.808Z,9.37
2024-05-09T10:09:27.052Z,8.70
2024-05-09T10:14:30.993Z,6.83
2024-05-09T10:19:35.310Z,7.47
2024-05-09T10:24:53.875Z,7.30
2024-05-09T10:29:57.690Z,6.00
2024-05-09T10:35:15.017Z,5.93
2024-05-09T10:40:26.100Z,6.50
2024-05-09T10:45:32.752Z,6.27
2024-05-09T10:50:35.688Z,5.40
2024-05-09T10:55:37.570Z,5.07
2024-05-09T11:00:41.197Z,5.67
2024-05-09T11:05:43.514Z,5.43
2024-05-09T11:10:45.935Z,5.10
2024-05-09T11:15:47.806Z,6.67
2024-05-09T11:20:51.301Z,5.93
2024-05-09T11:25:57.890Z,5.70
2024-05-09T11:31:10.534Z,5.97
2024-05-09T11:36:13.471Z,6.13
2024-05-09T11:41:18.798Z,7.47
2024-05-09T11:46:20.948Z,7.60
2024-05-09T11:51:22.874Z,6.70
2024-05-09T11:56:24.717Z,6.67
2024-05-09T12:01:27.836Z,6.87
2024-05-09T12:06:30.189Z,6.63
2024-05-09T12:11:32.252Z,6.83
2024-05-09T12:16:34.716Z,8.13
2024-05-09T12:21:36.672Z,7.60
2024-05-09T12:26:38.647Z,7.70
2024-05-09T12:31:40.485Z,7.80
2024-05-09T12:36:43.112Z,8.60
2024-05-09T12:41:45.012Z,7.50
2024-05-09T12:46:47.108Z,5.53
2024-05-09T12:51:48.915Z,6.30
2024-05-09T12:56:51.066Z,6.83
2024-05-09T13:01:52.951Z,7.07
2024-05-09T13:06:54.852Z,5.33
2024-05-09T13:11:57.101Z,5.73
2024-05-09T13:16:59.065Z,4.67
2024-05-09T13:22:00.970Z,5.90
2024-05-09T13:27:02.891Z,9.27
2024-05-09T13:32:05.134Z,5.97
2024-05-09T13:37:07.286Z,6.40
2024-05-09T13:42:10.036Z,5.97
2024-05-09T13:47:12.469Z,5.93
2024-05-09T13:52:14.516Z,5.07
2024-05-09T13:57:16.734Z,5.33
2024-05-09T14:02:18.889Z,4.87
2024-05-09T14:07:20.920Z,5.73
2024-05-09T14:12:22.739Z,5.53
2024-05-09T14:17:24.864Z,5.53
2024-05-09T14:22:26.794Z,5.05
2024-05-09T14:27:29.792Z,5.53
2024-05-09T14:32:31.729Z,5.43
2024-05-09T14:37:35.505Z,4.90
2024-05-09T14:42:38.292Z,4.78
2024-05-09T14:47:40.612Z,4.38
2024-05-09T14:52:42.594Z,3.55
2024-05-09T14:57:44.454Z,3.57
2024-05-09T15:02:46.589Z,3.22
2024-05-09T15:07:49.901Z,3.42
2024-05-09T15:12:51.756Z,3.90
2024-05-09T15:17:54.551Z,3.03
2024-05-09T15:22:56.484Z,3.70
2024-05-09T15:27:58.447Z,3.23
2024-05-09T15:33:01.257Z,4.05
2024-05-09T15:38:04.413Z,4.43
2024-05-09T15:43:07.149Z,8.37
2024-05-09T15:48:10.729Z,5.20
2024-05-09T15:53:13.897Z,4.28
2024-05-09T15:58:16.074Z,4.70
2024-05-09T16:03:19.551Z,4.83
2024-05-09T16:08:21.479Z,4.57
2024-05-09T16:13:23.411Z,4.10
2024-05-09T16:18:25.616Z,4.20
2024-05-09T16:23:28.492Z,4.10
2024-05-09T16:28:30.474Z,3.90
2024-05-09T16:33:32.644Z,4.63
2024-05-09T16:38:34.639Z,3.87
2024-05-09T16:43:36.444Z,3.60
2024-05-09T16:48:40.821Z,4.43
2024-05-09T16:53:42.807Z,4.27
2024-05-09T16:58:44.764Z,3.50
2024-05-09T17:03:46.765Z,4.00
2024-05-09T17:08:49.453Z,3.80
2024-05-09T17:13:51.249Z,4.67
2024-05-09T17:18:53.171Z,4.63
2024-05-09T17:23:55.726Z,4.43
2024-05-09T17:28:57.798Z,3.43
2024-05-09T17:33:59.858Z,4.13
2024-05-09T17:39:01.995Z,4.30
2024-05-09T17:44:04.007Z,3.90
2024-05-09T17:49:06.001Z,4.17
2024-05-09T17:54:07.894Z,3.20
2024-05-09T17:59:11.557Z,3.57
2024-05-09T18:04:14.017Z,3.60
2024-05-09T18:09:15.935Z,4.03
2024-05-09T18:14:17.972Z,3.60
2024-05-09T18:19:19.943Z,5.07
2024-05-09T18:24:22.210Z,3.53
2024-05-09T18:29:24.069Z,4.13
2024-05-09T18:34:25.960Z,4.20
2024-05-09T18:39:27.903Z,3.67
2024-05-09T18:44:31.231Z,3.87
2024-05-09T18:49:33.187Z,3.90
2024-05-09T18:54:35.163Z,4.13
2024-05-09T18:59:37.046Z,5.13
2024-05-09T19:04:39.154Z,5.67
2024-05-09T19:09:41.184Z,6.93
2024-05-09T19:14:43.642Z,6.23
2024-05-09T19:19:45.596Z,6.10
2024-05-09T19:24:47.518Z,5.57
2024-05-09T19:29:49.330Z,8.10
2024-05-09T19:34:51.144Z,7.70
2024-05-09T19:39:52.989Z,8.07
2024-05-09T19:44:54.874Z,14.07
2024-05-09T19:49:56.789Z,9.43
2024-05-09T19:54:58.665Z,8.33
2024-05-09T20:00:00.923Z,9.63
2024-05-09T20:05:03.700Z,8.80
2024-05-09T20:10:13.072Z,8.37
2024-05-09T20:15:18.275Z,9.43
2024-05-09T20:20:28.429Z,8.87
2024-05-09T20:25:38.404Z,9.53
2024-05-09T20:30:40.374Z,9.80
2024-05-09T20:35:42.365Z,9.33
2024-05-09T20:40:44.263Z,10.20
2024-05-09T20:45:46.199Z,9.23
2024-05-09T20:50:48.198Z,10.43
2024-05-09T20:55:50.091Z,9.37
2024-05-09T21:00:51.991Z,8.80
2024-05-09T21:05:54.100Z,9.00
2024-05-09T21:10:56.136Z,9.13
2024-05-09T21:15:58.155Z,8.87
2024-05-09T21:21:00.051Z,9.00
2024-05-09T21:26:01.859Z,9.70
2024-05-09T21:31:03.879Z,9.83
2024-05-09T21:36:08.676Z,9.13
2024-05-09T21:41:10.510Z,10.57
2024-05-09T21:46:12.344Z,10.40
2024-05-09T21:51:14.971Z,9.77
2024-05-09T21:56:16.812Z,9.67
2024-05-09T22:01:18.723Z,9.17
2024-05-09T22:06:20.592Z,9.27
2024-05-09T22:11:22.453Z,10.17
2024-05-09T22:16:24.689Z,9.33
2024-05-09T22:21:26.636Z,10.33
2024-05-09T22:26:28.436Z,10.03
2024-05-09T22:31:30.280Z,11.33
2024-05-09T22:36:32.199Z,9.83
2024-05-09T22:41:34.009Z,10.53
2024-05-09T22:46:35.857Z,12.07
2024-05-09T22:51:37.755Z,9.17
2024-05-09T22:56:39.704Z,11.70
2024-05-09T23:01:41.581Z,10.83
2024-05-09T23:06:43.446Z,12.03
2024-05-09T23:11:45.879Z,11.30
2024-05-09T23:16:47.784Z,11.17
2024-05-09T23:21:49.749Z,10.97
2024-05-09T23:26:51.566Z,11.37
2024-05-09T23:31:53.447Z,10.57
2024-05-09T23:36:55.269Z,11.83
2024-05-09T23:41:57.061Z,11.87
2024-05-09T23:46:58.875Z,11.67
2024-05-09T23:52:00.761Z,11.03
2024-05-09T23:57:02.587Z,11.30
